YM Kaohsiung — MCGF6 — position and weather

sailwx.info

Track history (hours):
 
Tides and Currents Weather Stations Pressure Air Temp Water Temp Dewpoint Dewpoint Depression Visibility Wind Speed Wind Dir Waves Ship Positions

YM Kaohsiung

Last reported at 2015-Mar-04 07:24 UTC. Time now 2015-Mar-04 08:34 UTC.
Position N 01°16' E 103°50'.

Length 260 m; draft 11.5 m.

Type: Cargo ship. MMSI: 235767000.

Date/timePositionNaut miles runAvg speedWind from/ knotsBaromVisibWave heightAir tempDewpointWater temp
2015-Mar-04 07:24N 01°16' E 103°50'0 0.0
2015-Mar-04 05:27N 01°16' E 103°50'0 0.0
2015-Mar-04 04:30N 01°16' E 103°50'0 0.0
2015-Mar-04 03:20N 01°16' E 103°50'0 0.0
2015-Mar-04 02:26N 01°16' E 103°50'0 0.0
2015-Mar-04 01:32N 01°16' E 103°50'1 1.5
2015-Mar-04 00:33N 01°15' E 103°51'5 4.2
2015-Mar-03 23:27N 01°11' E 103°51'7 7.8
2015-Mar-03 22:32N 01°07' E 103°45'8212.7
2015-Mar-03 16:04N 01°45' E 102°32'713.8
2015-Mar-03 15:33N 01°48' E 102°26'1713.6
2015-Mar-03 14:16N 01°57' E 102°11'  
2015-Feb-25 01:30N 01°16' E 103°46'0 0.0
2015-Feb-25 00:33N 01°16' E 103°46'0 0.0
2015-Feb-24 23:29N 01°16' E 103°46'0 0.0
2015-Feb-24 22:29N 01°16' E 103°46'0 0.0
2015-Feb-24 21:29N 01°16' E 103°46'0 0.0
2015-Feb-24 20:32N 01°16' E 103°46'0 0.0
2015-Feb-24 19:29N 01°16' E 103°46'0 0.0
2015-Feb-24 18:29N 01°16' E 103°46'0 0.0
2015-Feb-24 17:29N 01°16' E 103°46'0 0.0
2015-Feb-24 16:29N 01°16' E 103°46'0 0.0
2015-Feb-24 15:29N 01°16' E 103°46'0 0.0
2015-Feb-24 14:29N 01°16' E 103°46'0 0.0
2015-Feb-24 13:29N 01°16' E 103°46'0 0.0
2015-Feb-24 12:29N 01°16' E 103°46'0 0.1
2015-Feb-24 11:29N 01°16' E 103°46'0 0.1
2015-Feb-24 10:29N 01°16' E 103°46'0 0.0
2015-Feb-24 09:28N 01°16' E 103°46'1 1.1
2015-Feb-24 08:33N 01°15' E 103°46'4 4.3
2015-Feb-24 07:32N 01°12' E 103°50'8 8.5
2015-Feb-24 06:33N 01°15' E 103°58'7 6.6
2015-Feb-24 05:33N 01°16' E 104°04'7 7.2
2015-Feb-24 04:33N 01°17' E 104°11'6 5.6
2015-Feb-24 03:33N 01°18' E 104°17'4 3.5
2015-Feb-24 02:24N 01°19' E 104°21'  
Track history (hours):
 
Tides and Currents Weather Stations Pressure Air Temp Water Temp Dewpoint Dewpoint Depression Visibility Wind Speed Wind Dir Waves Ship Positions

YM Kaohsiung

Last reported at 2015-Mar-04 07:24 UTC. Time now 2015-Mar-04 08:34 UTC.
Position N 01°16' E 103°50'.

Length 260 m; draft 11.5 m.

Type: Cargo ship. MMSI: 235767000.

Date/timePositionNaut miles runAvg speedWind from/ knotsBaromVisibWave heightAir tempDewpointWater temp
2015-Mar-04 07:24N 01°16' E 103°50'0 0.0
2015-Mar-04 05:27N 01°16' E 103°50'0 0.0
2015-Mar-04 04:30N 01°16' E 103°50'0 0.0
2015-Mar-04 03:20N 01°16' E 103°50'0 0.0
2015-Mar-04 02:26N 01°16' E 103°50'0 0.0
2015-Mar-04 01:32N 01°16' E 103°50'1 1.5
2015-Mar-04 00:33N 01°15' E 103°51'5 4.2
2015-Mar-03 23:27N 01°11' E 103°51'7 7.8
2015-Mar-03 22:32N 01°07' E 103°45'8212.7
2015-Mar-03 16:04N 01°45' E 102°32'713.8
2015-Mar-03 15:33N 01°48' E 102°26'1713.6
2015-Mar-03 14:16N 01°57' E 102°11'  
2015-Feb-25 01:30N 01°16' E 103°46'0 0.0
2015-Feb-25 00:33N 01°16' E 103°46'0 0.0
2015-Feb-24 23:29N 01°16' E 103°46'0 0.0
2015-Feb-24 22:29N 01°16' E 103°46'0 0.0
2015-Feb-24 21:29N 01°16' E 103°46'0 0.0
2015-Feb-24 20:32N 01°16' E 103°46'0 0.0
2015-Feb-24 19:29N 01°16' E 103°46'0 0.0
2015-Feb-24 18:29N 01°16' E 103°46'0 0.0
2015-Feb-24 17:29N 01°16' E 103°46'0 0.0
2015-Feb-24 16:29N 01°16' E 103°46'0 0.0
2015-Feb-24 15:29N 01°16' E 103°46'0 0.0
2015-Feb-24 14:29N 01°16' E 103°46'0 0.0
2015-Feb-24 13:29N 01°16' E 103°46'0 0.0
2015-Feb-24 12:29N 01°16' E 103°46'0 0.1
2015-Feb-24 11:29N 01°16' E 103°46'0 0.1
2015-Feb-24 10:29N 01°16' E 103°46'0 0.0
2015-Feb-24 09:28N 01°16' E 103°46'1 1.1
2015-Feb-24 08:33N 01°15' E 103°46'4 4.3
2015-Feb-24 07:32N 01°12' E 103°50'8 8.5
2015-Feb-24 06:33N 01°15' E 103°58'7 6.6
2015-Feb-24 05:33N 01°16' E 104°04'7 7.2
2015-Feb-24 04:33N 01°17' E 104°11'6 5.6
2015-Feb-24 03:33N 01°18' E 104°17'4 3.5
2015-Feb-24 02:24N 01°19' E 104°21'  

Dump ship's entire track history